createdAt,value
2018-06-17T00:00:23.340Z,81.32
2018-06-17T00:02:52.070Z,81.42
2018-06-17T00:05:20.666Z,80.35
2018-06-17T00:07:49.818Z,80.37
2018-06-17T00:10:18.655Z,80.48
2018-06-17T00:12:47.428Z,80.32
2018-06-17T00:15:16.614Z,83.08
2018-06-17T00:17:45.387Z,80.70
2018-06-17T00:20:14.172Z,80.39
2018-06-17T00:22:43.268Z,81.27
2018-06-17T00:25:12.043Z,83.20
2018-06-17T00:27:40.733Z,83.43
2018-06-17T00:30:09.939Z,84.14
2018-06-17T00:32:38.700Z,82.75
2018-06-17T00:35:07.734Z,83.02
2018-06-17T00:37:36.819Z,82.29
2018-06-17T00:40:05.774Z,80.85
2018-06-17T00:42:34.588Z,81.76
2018-06-17T00:45:04.009Z,81.65
2018-06-17T00:47:32.748Z,80.81
2018-06-17T00:50:01.744Z,81.42
2018-06-17T00:52:30.572Z,82.14
2018-06-17T00:54:59.335Z,81.45
2018-06-17T00:57:45.911Z,81.34
2018-06-17T01:00:14.503Z,81.17
2018-06-17T01:02:43.733Z,81.12
2018-06-17T01:05:12.973Z,82.19
2018-06-17T01:07:41.799Z,82.66
2018-06-17T01:10:10.451Z,82.89
2018-06-17T01:12:39.947Z,82.77
2018-06-17T01:15:08.908Z,83.01
2018-06-17T01:17:38.268Z,85.22
2018-06-17T01:20:08.155Z,85.07
2018-06-17T01:22:37.731Z,85.48
2018-06-17T01:25:06.590Z,84.22
2018-06-17T01:27:35.751Z,84.03
2018-06-17T01:30:04.991Z,82.18
2018-06-17T01:32:33.724Z,80.27
2018-06-17T01:35:02.797Z,79.61
2018-06-17T01:37:31.551Z,80.36
2018-06-17T01:40:00.386Z,80.60
2018-06-17T01:42:29.425Z,80.26
2018-06-17T01:44:58.174Z,79.87
2018-06-17T01:47:26.986Z,78.80
2018-06-17T01:49:55.771Z,77.62
2018-06-17T01:52:24.575Z,78.98
2018-06-17T01:54:53.400Z,80.35
2018-06-17T01:57:22.571Z,80.97
2018-06-17T01:59:51.350Z,79.99
2018-06-17T02:02:20.083Z,79.76
2018-06-17T02:04:54.975Z,79.56
2018-06-17T02:07:31.355Z,81.56
2018-06-17T02:10:06.136Z,80.92
2018-06-17T02:12:34.879Z,81.54
2018-06-17T02:15:04.636Z,80.94
2018-06-17T02:17:33.767Z,81.59
2018-06-17T02:20:02.543Z,81.10
2018-06-17T02:22:31.303Z,81.15
2018-06-17T02:25:00.206Z,81.88
2018-06-17T02:27:29.017Z,83.14
2018-06-17T02:29:57.763Z,82.71
2018-06-17T02:32:26.713Z,83.34
2018-06-17T02:34:55.499Z,84.31
2018-06-17T02:37:24.266Z,83.60
2018-06-17T02:39:53.442Z,83.34
2018-06-17T02:42:22.447Z,83.17
2018-06-17T02:44:57.123Z,81.63
2018-06-17T02:47:31.610Z,82.77
2018-06-17T02:50:06.509Z,84.30
2018-06-17T02:52:40.767Z,83.33
2018-06-17T02:55:09.847Z,84.87
2018-06-17T02:57:38.951Z,83.33
2018-06-17T03:00:07.787Z,84.05
2018-06-17T03:02:36.838Z,84.29
2018-06-17T03:05:05.721Z,83.68
2018-06-17T03:07:34.571Z,82.93
2018-06-17T03:10:04.055Z,83.28
2018-06-17T03:12:32.782Z,84.35
2018-06-17T03:15:01.524Z,82.72
2018-06-17T03:17:30.571Z,81.66
2018-06-17T03:19:59.372Z,80.76
2018-06-17T03:22:28.115Z,81.17
2018-06-17T03:25:02.531Z,81.18
2018-06-17T03:27:36.826Z,81.66
2018-06-17T03:30:11.753Z,80.22
2018-06-17T03:32:46.059Z,78.90
2018-06-17T03:35:20.735Z,78.20
2018-06-17T03:37:49.699Z,79.68
2018-06-17T03:40:18.434Z,79.61
2018-06-17T03:42:47.407Z,78.44
2018-06-17T03:45:22.256Z,78.33
2018-06-17T03:47:51.299Z,78.88
2018-06-17T03:50:20.050Z,78.17
2018-06-17T03:52:48.776Z,77.74
2018-06-17T03:55:17.910Z,78.22
2018-06-17T03:57:46.640Z,77.79
2018-06-17T04:00:15.204Z,75.62
2018-06-17T04:02:44.586Z,74.10
2018-06-17T04:05:18.875Z,74.13
2018-06-17T04:07:48.071Z,73.85
2018-06-17T04:10:16.863Z,73.52
2018-06-17T04:12:45.418Z,73.57
2018-06-17T04:15:14.335Z,73.74
2018-06-17T04:17:43.071Z,72.04
2018-06-17T04:20:11.891Z,72.48
2018-06-17T04:22:40.843Z,73.44
2018-06-17T04:25:09.624Z,74.05
2018-06-17T04:27:38.342Z,74.57
2018-06-17T04:30:07.442Z,75.15
2018-06-17T04:32:36.232Z,74.75
2018-06-17T04:35:05.021Z,73.93
2018-06-17T04:37:34.100Z,74.24
2018-06-17T04:40:03.284Z,74.02
2018-06-17T04:42:32.334Z,72.98
2018-06-17T04:45:01.448Z,72.39
2018-06-17T04:47:30.205Z,71.96
2018-06-17T04:49:58.947Z,71.32
2018-06-17T04:52:28.173Z,71.29
2018-06-17T04:54:56.902Z,70.08
2018-06-17T04:57:25.703Z,70.53
2018-06-17T04:59:54.848Z,70.60
2018-06-17T05:02:23.615Z,69.56
2018-06-17T05:04:52.355Z,70.01
2018-06-17T05:07:21.298Z,69.46
2018-06-17T05:09:50.012Z,68.64
2018-06-17T05:12:18.751Z,69.97
2018-06-17T05:14:47.786Z,68.92
2018-06-17T05:17:16.525Z,67.87
2018-06-17T05:19:45.107Z,67.59
2018-06-17T05:22:14.304Z,67.21
2018-06-17T05:24:42.885Z,67.52
2018-06-17T05:27:11.470Z,67.66
2018-06-17T05:29:40.778Z,67.12
2018-06-17T05:32:09.355Z,67.13
2018-06-17T05:34:38.169Z,66.20
2018-06-17T05:37:07.796Z,64.27
2018-06-17T05:39:36.885Z,61.90
2018-06-17T05:42:05.691Z,60.61
2018-06-17T05:44:34.798Z,61.54
2018-06-17T05:47:03.460Z,63.93
2018-06-17T05:49:32.226Z,63.32
2018-06-17T05:52:01.479Z,64.29
2018-06-17T05:54:30.258Z,65.15
2018-06-17T05:56:59.322Z,66.52
2018-06-17T05:59:28.699Z,65.06
2018-06-17T06:01:57.312Z,65.71
2018-06-17T06:04:26.088Z,65.68
2018-06-17T06:06:55.040Z,65.25
2018-06-17T06:09:23.788Z,65.60
2018-06-17T06:11:52.707Z,65.01
2018-06-17T06:14:21.708Z,64.43
2018-06-17T06:16:50.465Z,64.88
2018-06-17T06:19:19.233Z,63.80
2018-06-17T06:21:47.997Z,64.06
2018-06-17T06:24:16.788Z,64.17
2018-06-17T06:26:45.531Z,64.58
2018-06-17T06:29:14.628Z,63.17
2018-06-17T06:31:43.399Z,63.67
2018-06-17T06:34:12.147Z,62.98
2018-06-17T06:36:41.252Z,62.31
2018-06-17T06:39:10.738Z,62.68
2018-06-17T06:41:40.372Z,61.44
2018-06-17T06:44:09.540Z,59.95
2018-06-17T06:46:38.300Z,61.48
2018-06-17T06:49:07.103Z,61.37
2018-06-17T06:51:36.526Z,60.42
2018-06-17T06:54:05.346Z,59.67
2018-06-17T06:56:34.120Z,57.76
2018-06-17T06:59:03.263Z,57.88
2018-06-17T07:01:48.803Z,57.28
2018-06-17T07:04:34.879Z,56.38
2018-06-17T07:08:19.151Z,56.66
2018-06-17T07:10:48.244Z,56.61
2018-06-17T07:13:17.268Z,54.26
2018-06-17T07:15:57.386Z,56.50
2018-06-17T07:18:36.037Z,56.71
2018-06-17T07:21:05.425Z,55.63
2018-06-17T07:23:34.254Z,53.35
2018-06-17T07:26:41.500Z,54.50
2018-06-17T07:29:30.444Z,54.59
2018-06-17T07:31:59.763Z,52.57
2018-06-17T07:34:28.752Z,51.07
2018-06-17T07:36:57.575Z,49.71
2018-06-17T07:41:43.665Z,49.87
2018-06-17T07:44:13.043Z,48.99
2018-06-17T07:46:41.956Z,47.69
2018-06-17T07:49:39.302Z,46.16
2018-06-17T07:52:26.140Z,46.88
2018-06-17T07:54:55.429Z,48.12
2018-06-17T07:57:26.483Z,49.93
2018-06-17T07:59:55.666Z,50.45
2018-06-17T08:02:25.082Z,50.54
2018-06-17T08:04:54.130Z,51.43
2018-06-17T08:07:23.266Z,51.59
2018-06-17T08:09:53.142Z,51.55
2018-06-17T08:12:21.883Z,52.95
2018-06-17T08:14:50.991Z,52.51
2018-06-17T08:17:19.740Z,51.77
2018-06-17T08:19:48.508Z,51.17
2018-06-17T08:22:17.739Z,49.53
2018-06-17T08:24:46.484Z,50.10
2018-06-17T08:27:15.243Z,48.93
2018-06-17T08:29:44.327Z,47.49
2018-06-17T08:32:13.712Z,47.19
2018-06-17T08:34:42.334Z,47.44
2018-06-17T08:37:11.879Z,47.82
2018-06-17T08:39:40.640Z,48.05
2018-06-17T08:42:09.246Z,46.86
2018-06-17T08:44:38.392Z,43.59
2018-06-17T08:47:07.795Z,44.40
2018-06-17T08:49:36.580Z,45.01
2018-06-17T08:52:06.088Z,45.59
2018-06-17T08:54:34.845Z,47.41
2018-06-17T08:57:03.611Z,46.39
2018-06-17T08:59:33.099Z,45.68
2018-06-17T09:02:02.142Z,45.40
2018-06-17T09:04:31.027Z,46.31
2018-06-17T09:07:00.023Z,45.91
2018-06-17T09:09:28.770Z,47.26
2018-06-17T09:11:57.821Z,46.16
2018-06-17T09:14:27.220Z,45.90
2018-06-17T09:16:55.987Z,46.77
2018-06-17T09:19:24.771Z,46.86
2018-06-17T09:21:53.923Z,46.76
2018-06-17T09:24:22.771Z,47.27
2018-06-17T09:26:51.524Z,46.44
2018-06-17T09:29:20.700Z,46.45
2018-06-17T09:31:49.841Z,45.57
2018-06-17T09:34:18.627Z,45.74
2018-06-17T09:36:47.761Z,44.99
2018-06-17T09:39:16.542Z,45.24
2018-06-17T09:41:45.342Z,44.94
2018-06-17T09:44:14.844Z,44.66
2018-06-17T09:46:43.540Z,45.64
2018-06-17T09:49:12.346Z,46.40
2018-06-17T09:51:41.456Z,46.68
2018-06-17T09:54:10.215Z,46.69
2018-06-17T09:56:38.996Z,46.47
2018-06-17T09:59:08.128Z,47.16
2018-06-17T10:01:36.974Z,47.99
2018-06-17T10:04:05.758Z,48.24
2018-06-17T10:06:34.931Z,49.17
2018-06-17T10:09:06.595Z,48.75
2018-06-17T10:11:36.219Z,47.88
2018-06-17T10:14:05.128Z,45.54
2018-06-17T10:16:33.916Z,45.19
2018-06-17T10:19:03.047Z,45.20
2018-06-17T10:21:31.824Z,44.87
2018-06-17T10:24:00.910Z,46.08
2018-06-17T10:26:30.132Z,44.64
2018-06-17T10:28:58.998Z,45.08
2018-06-17T10:31:27.738Z,46.27
2018-06-17T10:33:57.215Z,46.39
2018-06-17T10:36:26.004Z,47.08
2018-06-17T10:38:54.658Z,46.15
2018-06-17T10:41:23.799Z,46.25
2018-06-17T10:43:52.555Z,45.94
2018-06-17T10:46:21.323Z,46.41
2018-06-17T10:48:50.577Z,45.37
2018-06-17T10:51:19.471Z,45.16
2018-06-17T10:53:48.238Z,45.19
2018-06-17T10:56:17.830Z,44.92
2018-06-17T10:58:46.576Z,45.08
2018-06-17T11:01:15.389Z,44.41
2018-06-17T11:03:44.435Z,46.08
2018-06-17T11:06:13.215Z,45.95
2018-06-17T11:08:42.288Z,45.18
2018-06-17T11:11:11.374Z,45.76
2018-06-17T11:13:40.134Z,44.64
2018-06-17T11:16:08.951Z,44.39
2018-06-17T11:18:41.099Z,43.77
2018-06-17T11:21:09.704Z,42.91
2018-06-17T11:23:38.463Z,43.21
2018-06-17T11:26:07.558Z,42.87
2018-06-17T11:28:36.393Z,42.72
2018-06-17T11:31:05.147Z,42.66
2018-06-17T11:33:33.940Z,42.64
2018-06-17T11:36:02.723Z,41.80
2018-06-17T11:38:31.531Z,41.58
2018-06-17T11:41:01.092Z,42.48
2018-06-17T11:43:29.846Z,43.74
2018-06-17T11:45:58.631Z,45.19
2018-06-17T11:48:28.271Z,45.38
2018-06-17T11:50:57.102Z,43.81
2018-06-17T11:53:26.109Z,45.20
2018-06-17T11:55:55.577Z,44.65
2018-06-17T11:58:24.393Z,44.72
2018-06-17T12:00:53.192Z,42.92
2018-06-17T12:03:22.402Z,43.37
2018-06-17T12:05:51.274Z,43.69
2018-06-17T12:08:20.137Z,41.35
2018-06-17T12:10:49.311Z,41.91
2018-06-17T12:13:18.100Z,43.38
2018-06-17T12:15:47.069Z,41.63
2018-06-17T12:18:16.728Z,41.46
2018-06-17T12:20:45.516Z,41.09
2018-06-17T12:23:14.287Z,42.31
2018-06-17T12:25:43.538Z,41.31
2018-06-17T12:28:12.310Z,40.35
2018-06-17T12:30:41.220Z,40.87
2018-06-17T12:33:10.290Z,41.05
2018-06-17T12:35:39.089Z,41.80
2018-06-17T12:38:07.878Z,41.66
2018-06-17T12:40:36.988Z,42.32
2018-06-17T12:43:05.915Z,41.16
2018-06-17T12:45:40.871Z,42.01
2018-06-17T12:48:10.736Z,43.16
2018-06-17T12:50:39.724Z,43.13
2018-06-17T12:53:08.832Z,43.59
2018-06-17T12:55:37.654Z,43.03
2018-06-17T12:58:06.542Z,43.72
2018-06-17T13:00:35.676Z,44.37
2018-06-17T13:03:04.489Z,43.58
2018-06-17T13:05:33.322Z,42.97
2018-06-17T13:08:02.453Z,43.05
2018-06-17T13:10:31.523Z,41.57
2018-06-17T13:13:00.284Z,42.26
2018-06-17T13:15:29.374Z,41.66
2018-06-17T13:17:58.201Z,41.99
2018-06-17T13:20:26.988Z,41.28
2018-06-17T13:22:56.112Z,41.29
2018-06-17T13:25:24.915Z,41.15
2018-06-17T13:27:54.268Z,40.23
2018-06-17T13:30:23.437Z,40.80
2018-06-17T13:32:52.021Z,41.13
2018-06-17T13:35:20.702Z,41.79
2018-06-17T13:37:50.295Z,41.79
2018-06-17T13:40:19.077Z,41.45
2018-06-17T13:42:47.902Z,42.84
2018-06-17T13:45:17.011Z,41.17
2018-06-17T13:47:45.836Z,41.10
2018-06-17T13:50:14.651Z,41.64
2018-06-17T13:52:43.842Z,42.23
2018-06-17T13:55:13.244Z,43.34
2018-06-17T13:57:42.096Z,42.77
2018-06-17T14:00:11.548Z,42.55
2018-06-17T14:02:40.414Z,42.16
2018-06-17T14:05:09.395Z,41.95
2018-06-17T14:07:38.628Z,39.58
2018-06-17T14:10:07.470Z,38.14
2018-06-17T14:12:36.208Z,38.02
2018-06-17T14:15:05.952Z,37.66
2018-06-17T14:17:35.003Z,37.90
2018-06-17T14:20:04.920Z,37.58
2018-06-17T14:22:34.027Z,37.88
2018-06-17T14:25:02.879Z,38.19
2018-06-17T14:27:31.644Z,39.56
2018-06-17T14:30:00.697Z,39.42
2018-06-17T14:32:29.526Z,40.37
2018-06-17T14:34:58.117Z,40.57
2018-06-17T14:37:27.414Z,40.54
2018-06-17T14:39:56.220Z,40.01
2018-06-17T14:42:30.844Z,38.46
2018-06-17T14:45:05.065Z,38.41
2018-06-17T14:47:39.744Z,38.00
2018-06-17T14:50:14.350Z,38.37
2018-06-17T14:52:48.790Z,39.07
2018-06-17T14:55:18.024Z,39.34
2018-06-17T14:57:47.411Z,40.51
2018-06-17T15:00:16.544Z,40.65
2018-06-17T15:02:45.307Z,40.80
2018-06-17T15:05:14.579Z,41.12
2018-06-17T15:07:43.826Z,41.34
2018-06-17T15:10:12.784Z,41.17
2018-06-17T15:12:41.767Z,40.27
2018-06-17T15:15:11.036Z,41.14
2018-06-17T15:17:39.807Z,41.56
2018-06-17T15:20:09.082Z,41.14
2018-06-17T15:22:38.276Z,43.01
2018-06-17T15:25:07.113Z,41.94
2018-06-17T15:27:36.459Z,43.23
2018-06-17T15:30:06.615Z,43.60
2018-06-17T15:32:41.184Z,44.13
2018-06-17T15:35:16.539Z,45.68
2018-06-17T15:37:50.884Z,44.88
2018-06-17T15:40:24.489Z,45.74
2018-06-17T15:42:53.283Z,45.63
2018-06-17T15:45:28.609Z,45.80
2018-06-17T15:47:57.372Z,45.27
2018-06-17T15:50:26.152Z,45.76
2018-06-17T15:52:55.342Z,45.57
2018-06-17T15:55:24.096Z,45.71
2018-06-17T15:57:52.711Z,45.73
2018-06-17T16:00:21.950Z,46.50
2018-06-17T16:02:50.926Z,45.58
2018-06-17T16:05:22.331Z,45.46
2018-06-17T16:07:52.461Z,44.55
2018-06-17T16:10:21.090Z,44.40
2018-06-17T16:12:55.723Z,44.04
2018-06-17T16:16:27.507Z,43.36
2018-06-17T16:19:02.117Z,44.65
2018-06-17T16:21:30.888Z,44.03
2018-06-17T16:23:59.662Z,45.70
2018-06-17T16:26:28.501Z,44.08
2018-06-17T16:28:57.573Z,43.44
2018-06-17T16:31:26.318Z,43.36
2018-06-17T16:33:55.124Z,43.25
2018-06-17T16:36:23.874Z,43.13
2018-06-17T16:38:52.708Z,43.74
2018-06-17T16:41:21.953Z,43.34
2018-06-17T16:43:50.715Z,42.79
2018-06-17T16:46:19.846Z,42.74
2018-06-17T16:48:48.927Z,42.72
2018-06-17T16:51:23.256Z,42.51
2018-06-17T16:53:57.775Z,43.12
2018-06-17T16:56:32.054Z,42.35
2018-06-17T16:59:06.550Z,42.21
2018-06-17T17:01:35.484Z,42.55
2018-06-17T17:04:04.268Z,42.66
2018-06-17T17:06:33.516Z,42.79
2018-06-17T17:09:02.701Z,42.25
2018-06-17T17:11:31.851Z,42.66
2018-06-17T17:14:01.095Z,42.09
2018-06-17T17:16:29.837Z,42.02
2018-06-17T17:18:58.889Z,42.16
2018-06-17T17:21:27.970Z,42.29
2018-06-17T17:23:56.765Z,43.27
2018-06-17T17:26:25.572Z,43.86
2018-06-17T17:28:54.944Z,43.70
2018-06-17T17:31:24.174Z,43.87
2018-06-17T17:33:58.876Z,44.20
2018-06-17T17:36:33.142Z,45.00
2018-06-17T17:39:07.840Z,45.78
2018-06-17T17:41:36.937Z,45.38
2018-06-17T17:44:05.852Z,45.80
2018-06-17T17:46:40.408Z,44.73
2018-06-17T17:49:09.296Z,44.62
2018-06-17T17:51:38.072Z,44.89
2018-06-17T17:54:07.700Z,45.80
2018-06-17T17:56:37.048Z,44.86
2018-06-17T17:59:06.100Z,44.22
2018-06-17T18:01:35.283Z,44.72
2018-06-17T18:04:04.062Z,44.88
2018-06-17T18:06:32.733Z,45.03
2018-06-17T18:09:01.914Z,43.73
2018-06-17T18:11:30.672Z,44.90
2018-06-17T18:13:59.523Z,44.92
2018-06-17T18:16:28.584Z,45.57
2018-06-17T18:18:57.340Z,45.04
2018-06-17T18:21:26.211Z,45.36
2018-06-17T18:23:55.365Z,45.34
2018-06-17T18:26:29.562Z,45.15
2018-06-17T18:29:03.917Z,45.47
2018-06-17T18:31:38.118Z,46.43
2018-06-17T18:34:12.519Z,46.70
2018-06-17T18:36:48.358Z,46.51
2018-06-17T18:39:17.429Z,46.82
2018-06-17T18:41:46.236Z,47.15
2018-06-17T18:44:14.971Z,47.58
2018-06-17T18:46:43.771Z,48.67
2018-06-17T18:49:12.571Z,48.85
2018-06-17T18:51:41.595Z,51.18
2018-06-17T18:54:10.842Z,52.96
2018-06-17T18:56:39.629Z,53.38
2018-06-17T18:59:08.454Z,54.17
2018-06-17T19:01:47.660Z,56.57
2018-06-17T19:04:16.517Z,57.62
2018-06-17T19:06:45.484Z,57.86
2018-06-17T19:09:20.272Z,58.03
2018-06-17T19:11:54.892Z,57.61
2018-06-17T19:14:29.627Z,58.49
2018-06-17T19:17:04.063Z,59.40
2018-06-17T19:19:33.144Z,59.38
2018-06-17T19:22:01.967Z,58.79
2018-06-17T19:24:30.892Z,59.63
2018-06-17T19:26:59.960Z,59.48
2018-06-17T19:29:28.799Z,58.88
2018-06-17T19:31:57.559Z,59.56
2018-06-17T19:34:26.644Z,61.09
2018-06-17T19:36:55.751Z,59.20
2018-06-17T19:39:24.518Z,59.31
2018-06-17T19:41:53.593Z,59.35
2018-06-17T19:44:22.365Z,59.98
2018-06-17T19:46:51.134Z,60.41
2018-06-17T19:49:24.547Z,60.67
2018-06-17T19:51:58.891Z,61.10
2018-06-17T19:54:33.771Z,61.74
2018-06-17T19:57:08.034Z,61.30
2018-06-17T19:59:42.794Z,61.79
2018-06-17T20:02:11.565Z,61.07
2018-06-17T20:04:40.369Z,61.33
2018-06-17T20:07:09.279Z,61.83
2018-06-17T20:09:38.785Z,62.06
2018-06-17T20:12:07.699Z,63.27
2018-06-17T20:14:36.764Z,63.08
2018-06-17T20:17:05.354Z,64.30
2018-06-17T20:19:33.994Z,63.52
2018-06-17T20:22:02.915Z,64.12
2018-06-17T20:24:31.704Z,64.31
2018-06-17T20:27:00.462Z,66.92
2018-06-17T20:29:29.559Z,69.67
2018-06-17T20:32:03.768Z,71.42
2018-06-17T20:35:39.025Z,73.82
2018-06-17T20:38:13.399Z,73.72
2018-06-17T20:40:48.078Z,74.23
2018-06-17T20:43:22.867Z,75.48
2018-06-17T20:45:58.408Z,76.13
2018-06-17T20:48:27.231Z,76.23
2018-06-17T20:50:56.008Z,76.86
2018-06-17T20:53:25.137Z,77.75
2018-06-17T20:55:54.231Z,77.47
2018-06-17T20:58:23.231Z,77.25
2018-06-17T21:00:52.531Z,77.34
2018-06-17T21:03:21.353Z,76.62
2018-06-17T21:05:50.067Z,76.00
2018-06-17T21:08:19.164Z,76.27
2018-06-17T21:10:47.945Z,76.69
2018-06-17T21:13:16.717Z,75.67
2018-06-17T21:15:45.537Z,76.41
2018-06-17T21:18:18.828Z,76.32
2018-06-17T21:20:53.263Z,75.81
2018-06-17T21:23:27.635Z,76.94
2018-06-17T21:26:02.384Z,77.79
2018-06-17T21:28:31.172Z,75.66
2018-06-17T21:30:59.984Z,75.04
2018-06-17T21:33:29.122Z,75.31
2018-06-17T21:35:57.956Z,74.82
2018-06-17T21:38:27.368Z,74.46
2018-06-17T21:40:56.351Z,74.39
2018-06-17T21:43:25.187Z,74.84
2018-06-17T21:46:00.239Z,74.63
2018-06-17T21:48:29.008Z,73.59
2018-06-17T21:50:58.026Z,74.60
2018-06-17T21:53:27.221Z,74.16
2018-06-17T21:55:55.999Z,73.15
2018-06-17T21:58:58.080Z,74.15
2018-06-17T22:01:26.864Z,75.83
2018-06-17T22:04:00.519Z,74.86
2018-06-17T22:06:29.294Z,73.98
2018-06-17T22:09:04.583Z,75.22
2018-06-17T22:11:38.963Z,74.24
2018-06-17T22:14:13.543Z,74.15
2018-06-17T22:16:47.928Z,73.41
2018-06-17T22:19:17.067Z,74.50
2018-06-17T22:21:45.831Z,73.30
2018-06-17T22:24:14.679Z,73.14
2018-06-17T22:26:43.848Z,74.90
2018-06-17T22:29:12.607Z,72.52
2018-06-17T22:31:41.400Z,72.80
2018-06-17T22:34:10.627Z,72.31
2018-06-17T22:36:39.458Z,74.35
2018-06-17T22:39:08.929Z,73.44
2018-06-17T22:41:38.416Z,73.36
2018-06-17T22:44:07.260Z,72.78
2018-06-17T22:46:36.257Z,73.26
2018-06-17T22:49:05.972Z,72.20
2018-06-17T22:51:34.576Z,72.26
2018-06-17T22:54:20.631Z,72.96
2018-06-17T22:56:54.951Z,72.25
2018-06-17T22:59:29.763Z,71.78
2018-06-17T23:02:04.161Z,72.14
2018-06-17T23:04:38.827Z,73.41
2018-06-17T23:07:13.216Z,73.26
2018-06-17T23:09:45.317Z,73.11
2018-06-17T23:12:14.112Z,73.21
2018-06-17T23:14:42.927Z,72.93
2018-06-17T23:17:12.315Z,73.28
2018-06-17T23:19:41.374Z,73.85
2018-06-17T23:22:10.243Z,73.31
2018-06-17T23:24:39.338Z,73.50
2018-06-17T23:27:08.113Z,74.54
2018-06-17T23:29:37.251Z,75.95
2018-06-17T23:32:06.097Z,74.21
2018-06-17T23:34:34.967Z,73.58
2018-06-17T23:37:03.814Z,73.23
2018-06-17T23:39:32.647Z,72.77
2018-06-17T23:42:01.395Z,73.06
2018-06-17T23:44:30.455Z,73.73
2018-06-17T23:47:05.241Z,72.80
2018-06-17T23:49:39.987Z,73.12
2018-06-17T23:52:14.891Z,73.28
2018-06-17T23:54:49.244Z,72.86
2018-06-17T23:57:18.411Z,72.97
2018-06-17T23:59:47.191Z,73.08
